createdAt,value
2023-02-11T00:08:46.313Z,5.7
2023-02-11T00:18:48.000Z,5.7
2023-02-11T00:28:50.285Z,5.7
2023-02-11T00:48:55.379Z,5.8
2023-02-11T00:58:57.747Z,5.7
2023-02-11T01:19:02.463Z,5.8
2023-02-11T01:29:04.424Z,5.9
2023-02-11T01:39:06.765Z,5.9
2023-02-11T01:49:08.525Z,5.9
2023-02-11T01:59:10.709Z,5.9
2023-02-11T02:09:13.289Z,5.8
2023-02-11T02:19:15.438Z,5.8
2023-02-11T02:29:17.999Z,5.9
2023-02-11T02:39:19.949Z,5.8
2023-02-11T02:49:22.579Z,5.8
2023-02-11T02:59:24.705Z,5.7
2023-02-11T03:09:27.146Z,5.7
2023-02-11T03:19:29.233Z,5.7
2023-02-11T03:29:31.117Z,5.6
2023-02-11T03:39:33.759Z,5.6
2023-02-11T03:49:36.417Z,5.5
2023-02-11T03:59:38.391Z,5.5
2023-02-11T04:09:40.396Z,5.4
2023-02-11T04:19:42.963Z,5.3
2023-02-11T04:29:44.656Z,5.3
2023-02-11T04:39:46.953Z,5.2
2023-02-11T04:49:48.959Z,5.1
2023-02-11T05:09:53.044Z,5
2023-02-11T05:19:55.340Z,5
2023-02-11T05:29:57.254Z,5
2023-02-11T05:39:58.911Z,5
2023-02-11T05:50:01.403Z,5
2023-02-11T06:00:03.417Z,5
2023-02-11T06:10:05.676Z,5
2023-02-11T06:20:07.890Z,5
2023-02-11T06:30:10.422Z,5
2023-02-11T06:40:12.983Z,5
2023-02-11T06:50:15.515Z,5
2023-02-11T07:00:18.009Z,5
2023-02-11T07:10:19.833Z,5
2023-02-11T07:20:22.322Z,5.1
2023-02-11T07:30:23.995Z,5.1
2023-02-11T07:40:25.935Z,5.1
2023-02-11T07:50:28.271Z,5.2
2023-02-11T08:00:30.565Z,5.2
2023-02-11T08:10:32.417Z,5.2
2023-02-11T08:20:34.510Z,5.3
2023-02-11T08:30:36.509Z,5.4
2023-02-11T08:40:38.441Z,5.4
2023-02-11T08:50:40.377Z,5.5
2023-02-11T09:00:42.379Z,5.5
2023-02-11T09:10:44.560Z,5.6
2023-02-11T09:20:46.822Z,5.7
2023-02-11T09:30:49.499Z,5.8
2023-02-11T09:40:51.594Z,5.9
2023-02-11T09:50:53.653Z,5.9
2023-02-11T10:00:56.176Z,6
2023-02-11T10:10:58.141Z,6
2023-02-11T10:20:59.804Z,6.1
2023-02-11T10:31:02.106Z,6.2
2023-02-11T10:41:10.805Z,6.2
2023-02-11T10:51:14.514Z,6.3
2023-02-11T11:01:24.152Z,6.4
2023-02-11T11:11:17.875Z,6.5
2023-02-11T11:21:19.846Z,6.6
2023-02-11T11:31:21.889Z,6.7
2023-02-11T11:41:24.083Z,6.8
2023-02-11T11:51:26.682Z,6.7
2023-02-11T12:01:28.913Z,6.8
2023-02-11T12:11:30.616Z,6.9
2023-02-11T12:21:33.010Z,7.1
2023-02-11T12:31:35.571Z,7.2
2023-02-11T12:41:37.734Z,7.2
2023-02-11T12:51:40.420Z,7.2
2023-02-11T13:01:42.303Z,7.1
2023-02-11T13:11:44.462Z,7.3
2023-02-11T13:21:46.794Z,7.4
2023-02-11T13:31:49.318Z,7.5
2023-02-11T13:41:52.865Z,7.7
2023-02-11T13:51:54.243Z,7.7
2023-02-11T14:01:56.719Z,7.9
2023-02-11T14:11:59.050Z,8
2023-02-11T14:22:01.500Z,8.1
2023-02-11T14:32:05.793Z,8.1
2023-02-11T14:42:06.042Z,8
2023-02-11T14:52:08.558Z,8.1
2023-02-11T15:02:10.321Z,8.2
2023-02-11T15:12:12.051Z,8.2
2023-02-11T15:22:14.221Z,8.3
2023-02-11T15:32:16.601Z,8.3
2023-02-11T15:42:18.190Z,8.3
2023-02-11T15:52:20.052Z,8.2
2023-02-11T16:12:24.196Z,8.2
2023-02-11T16:22:26.676Z,8.1
2023-02-11T16:32:29.008Z,8.1
2023-02-11T16:42:30.640Z,8.1
2023-02-11T16:52:33.211Z,8.1
2023-02-11T17:02:35.240Z,8.1
2023-02-11T17:12:37.365Z,7.9
2023-02-11T17:22:39.315Z,7.9
2023-02-11T17:32:40.996Z,7.9
2023-02-11T17:42:43.566Z,7.8
2023-02-11T17:52:45.311Z,7.7
2023-02-11T18:02:48.049Z,7.7
2023-02-11T18:12:49.626Z,7.6
2023-02-11T18:22:51.556Z,7.6
2023-02-11T18:32:53.695Z,7.5
2023-02-11T18:42:55.681Z,7.5
2023-02-11T19:02:59.963Z,7.5
2023-02-11T19:13:01.715Z,7.4
2023-02-11T19:33:07.205Z,7.4
2023-02-11T19:43:07.963Z,7.4
2023-02-11T19:53:09.927Z,7.4
2023-02-11T20:03:12.431Z,7.4
2023-02-11T20:13:14.680Z,7.3
2023-02-11T20:23:16.582Z,7.3
2023-02-11T20:33:18.728Z,7.3
2023-02-11T20:43:21.379Z,7.3
2023-02-11T20:53:23.366Z,7.2
2023-02-11T21:03:25.297Z,7.3
2023-02-11T21:13:27.094Z,7.3
2023-02-11T21:23:29.292Z,7.4
2023-02-11T21:33:31.314Z,7.4
2023-02-11T21:53:35.488Z,7.3
2023-02-11T22:03:38.116Z,7.3
2023-02-11T22:13:39.966Z,7.3
2023-02-11T22:33:43.867Z,7.2
2023-02-11T22:43:46.346Z,7.2
2023-02-11T23:03:50.243Z,7.2
2023-02-11T23:13:52.614Z,7.1
2023-02-11T23:23:54.302Z,7.1
2023-02-11T23:33:56.503Z,7.1
2023-02-11T23:43:58.934Z,7
2023-02-11T23:54:01.309Z,7
